createdAt,value
2022-10-17T00:00:27.627Z,613.0000
2022-10-17T00:01:29.674Z,616.0000
2022-10-17T00:02:31.711Z,615.0000
2022-10-17T00:03:33.911Z,613.0000
2022-10-17T00:04:36.245Z,614.0000
2022-10-17T00:05:35.744Z,609.0000
2022-10-17T00:06:36.343Z,607.0000
2022-10-17T00:07:38.518Z,609.0000
2022-10-17T00:08:40.648Z,613.0000
2022-10-17T00:09:42.852Z,612.0000
2022-10-17T00:10:44.967Z,613.0000
2022-10-17T00:11:47.108Z,613.0000
2022-10-17T00:12:49.261Z,615.0000
2022-10-17T00:13:51.441Z,618.0000
2022-10-17T00:14:53.647Z,616.0000
2022-10-17T00:15:55.791Z,618.0000
2022-10-17T00:16:57.974Z,620.0000
2022-10-17T00:18:00.148Z,619.0000
2022-10-17T00:19:02.495Z,615.0000
2022-10-17T00:20:04.537Z,612.0000
2022-10-17T00:21:06.667Z,615.0000
2022-10-17T00:22:08.824Z,616.0000
2022-10-17T00:23:10.978Z,616.0000
2022-10-17T00:24:13.133Z,614.0000
2022-10-17T00:25:15.336Z,615.0000
2022-10-17T00:26:17.458Z,616.0000
2022-10-17T00:27:19.613Z,614.0000
2022-10-17T00:28:21.913Z,616.0000
2022-10-17T00:29:24.095Z,613.0000
2022-10-17T00:30:24.262Z,612.0000
2022-10-17T00:31:26.491Z,611.0000
2022-10-17T00:32:29.092Z,614.0000
2022-10-17T00:33:31.002Z,612.0000
2022-10-17T00:34:33.246Z,612.0000
2022-10-17T00:35:35.631Z,615.0000
2022-10-17T00:36:37.722Z,615.0000
2022-10-17T00:37:39.922Z,613.0000
2022-10-17T00:38:42.139Z,615.0000
2022-10-17T00:39:42.227Z,610.0000
2022-10-17T00:40:44.546Z,609.0000
2022-10-17T00:41:46.691Z,608.0000
2022-10-17T00:42:48.853Z,607.0000
2022-10-17T00:43:51.076Z,607.0000
2022-10-17T00:44:53.287Z,608.0000
2022-10-17T00:45:55.549Z,608.0000
2022-10-17T00:46:57.758Z,611.0000
2022-10-17T00:48:00.007Z,611.0000
2022-10-17T00:49:02.254Z,613.0000
2022-10-17T00:50:04.503Z,611.0000
2022-10-17T00:51:06.741Z,612.0000
2022-10-17T00:52:08.936Z,611.0000
2022-10-17T00:53:09.009Z,613.0000
2022-10-17T00:54:11.277Z,612.0000
2022-10-17T00:55:13.536Z,613.0000
2022-10-17T00:56:15.841Z,615.0000
2022-10-17T00:57:18.085Z,614.0000
2022-10-17T00:58:20.363Z,616.0000
2022-10-17T00:59:22.613Z,616.0000
2022-10-17T01:00:24.839Z,617.0000
2022-10-17T01:01:27.220Z,616.0000
2022-10-17T01:02:29.697Z,613.0000
2022-10-17T01:03:29.346Z,612.0000
2022-10-17T01:04:31.546Z,613.0000
2022-10-17T01:05:33.746Z,617.0000
2022-10-17T01:06:36.036Z,615.0000
2022-10-17T01:07:38.276Z,616.0000
2022-10-17T01:08:40.523Z,618.0000
2022-10-17T01:09:42.767Z,617.0000
2022-10-17T01:10:44.938Z,615.0000
2022-10-17T01:11:47.174Z,613.0000
2022-10-17T01:12:49.382Z,615.0000
2022-10-17T01:13:51.541Z,617.0000
2022-10-17T01:14:53.714Z,617.0000
2022-10-17T01:15:55.928Z,616.0000
2022-10-17T01:16:55.976Z,615.0000
2022-10-17T01:17:58.156Z,610.0000
2022-10-17T01:19:00.388Z,612.0000
2022-10-17T01:20:02.596Z,611.0000
2022-10-17T01:21:04.782Z,609.0000
2022-10-17T01:22:07.031Z,607.0000
2022-10-17T01:23:09.208Z,609.0000
2022-10-17T01:24:11.363Z,610.0000
2022-10-17T01:25:13.567Z,611.0000
2022-10-17T01:26:15.740Z,615.0000
2022-10-17T01:27:17.975Z,613.0000
2022-10-17T01:28:20.241Z,614.0000
2022-10-17T01:29:22.387Z,615.0000
2022-10-17T01:30:24.580Z,611.0000
2022-10-17T01:31:26.749Z,612.0000
2022-10-17T01:32:29.415Z,617.0000
2022-10-17T01:33:31.035Z,615.0000
2022-10-17T01:34:33.172Z,617.0000
2022-10-17T01:35:35.375Z,616.0000
2022-10-17T01:36:37.573Z,617.0000
2022-10-17T01:37:39.811Z,615.0000
2022-10-17T01:38:41.955Z,614.0000
2022-10-17T01:39:45.322Z,616.0000
2022-10-17T01:40:44.206Z,615.0000
2022-10-17T01:41:46.408Z,613.0000
2022-10-17T01:42:48.631Z,613.0000
2022-10-17T01:43:50.832Z,616.0000
2022-10-17T01:44:52.992Z,616.0000
2022-10-17T01:45:55.175Z,616.0000
2022-10-17T01:47:59.570Z,611.0000
2022-10-17T01:49:01.740Z,612.0000
2022-10-17T01:50:01.793Z,614.0000
2022-10-17T01:51:04.004Z,611.0000
2022-10-17T01:52:06.218Z,610.0000
2022-10-17T01:53:08.479Z,610.0000
2022-10-17T01:54:10.650Z,610.0000
2022-10-17T01:55:12.797Z,610.0000
2022-10-17T01:56:14.977Z,612.0000
2022-10-17T01:57:17.126Z,616.0000
2022-10-17T01:58:19.367Z,617.0000
2022-10-17T01:59:21.574Z,614.0000
2022-10-17T02:00:23.738Z,615.0000
2022-10-17T02:01:25.919Z,614.0000
2022-10-17T02:02:28.043Z,610.0000
2022-10-17T02:03:30.240Z,609.0000
2022-10-17T02:04:32.377Z,611.0000
2022-10-17T02:05:34.580Z,606.0000
2022-10-17T02:06:36.814Z,607.0000
2022-10-17T02:07:39.057Z,604.0000
2022-10-17T02:08:41.316Z,607.0000
2022-10-17T02:09:43.506Z,609.0000
2022-10-17T02:10:43.585Z,610.0000
2022-10-17T02:11:45.817Z,612.0000
2022-10-17T02:12:48.086Z,610.0000
2022-10-17T02:13:50.372Z,613.0000
2022-10-17T02:14:52.670Z,611.0000
2022-10-17T02:16:26.612Z,604.0000
2022-10-17T02:17:27.680Z,598.0000
2022-10-17T02:18:29.431Z,601.0000
2022-10-17T02:19:31.714Z,601.0000
2022-10-17T02:20:33.889Z,600.0000
2022-10-17T02:21:36.093Z,600.0000
2022-10-17T02:22:38.318Z,602.0000
2022-10-17T02:23:40.524Z,601.0000
2022-10-17T02:24:42.793Z,599.0000
2022-10-17T02:25:45.016Z,601.0000
2022-10-17T02:26:47.250Z,603.0000
2022-10-17T02:27:49.456Z,606.0000
2022-10-17T02:28:51.732Z,607.0000
2022-10-17T02:29:51.794Z,616.0000
2022-10-17T02:30:54.018Z,629.0000
2022-10-17T02:31:56.202Z,635.0000
2022-10-17T02:32:58.432Z,641.0000
2022-10-17T02:34:00.640Z,640.0000
2022-10-17T02:35:02.920Z,640.0000
2022-10-17T02:36:05.117Z,639.0000
2022-10-17T02:37:07.359Z,642.0000
2022-10-17T02:38:09.588Z,643.0000
2022-10-17T02:39:11.817Z,647.0000
2022-10-17T02:40:14.073Z,651.0000
2022-10-17T02:41:16.345Z,654.0000
2022-10-17T02:42:16.337Z,656.0000
2022-10-17T02:43:18.573Z,659.0000
2022-10-17T02:44:20.786Z,666.0000
2022-10-17T02:45:22.976Z,672.0000
2022-10-17T02:46:25.197Z,673.0000
2022-10-17T02:47:27.365Z,676.0000
2022-10-17T02:48:29.564Z,677.0000
2022-10-17T02:49:31.749Z,679.0000
2022-10-17T02:50:33.995Z,676.0000
2022-10-17T02:51:36.141Z,678.0000
2022-10-17T02:52:38.349Z,681.0000
2022-10-17T02:53:40.573Z,681.0000
2022-10-17T02:54:42.810Z,678.0000
2022-10-17T02:55:45.082Z,677.0000
2022-10-17T02:56:45.158Z,674.0000
2022-10-17T02:57:47.419Z,674.0000
2022-10-17T02:58:49.649Z,676.0000
2022-10-17T02:59:51.898Z,676.0000
2022-10-17T03:00:54.192Z,678.0000
2022-10-17T03:01:56.318Z,676.0000
2022-10-17T03:02:58.499Z,672.0000
2022-10-17T03:04:00.676Z,676.0000
2022-10-17T03:05:02.843Z,679.0000
2022-10-17T03:06:05.053Z,682.0000
2022-10-17T03:07:07.188Z,684.0000
2022-10-17T03:08:09.388Z,683.0000
2022-10-17T03:09:11.609Z,686.0000
2022-10-17T03:10:13.814Z,684.0000
2022-10-17T03:11:16.093Z,682.0000
2022-10-17T03:12:18.199Z,682.0000
2022-10-17T03:13:18.246Z,684.0000
2022-10-17T03:14:20.445Z,683.0000
2022-10-17T03:15:22.631Z,683.0000
2022-10-17T03:16:24.860Z,684.0000
2022-10-17T03:17:27.045Z,684.0000
2022-10-17T03:18:29.223Z,688.0000
2022-10-17T03:19:31.442Z,686.0000
2022-10-17T03:20:33.627Z,689.0000
2022-10-17T03:21:35.824Z,690.0000
2022-10-17T03:22:37.954Z,690.0000
2022-10-17T03:23:40.095Z,690.0000
2022-10-17T03:24:42.282Z,689.0000
2022-10-17T03:25:44.483Z,692.0000
2022-10-17T03:27:48.955Z,692.0000
2022-10-17T03:28:53.686Z,693.0000
2022-10-17T03:29:53.467Z,692.0000
2022-10-17T03:30:53.567Z,690.0000
2022-10-17T03:31:55.845Z,690.0000
2022-10-17T03:32:58.097Z,689.0000
2022-10-17T03:34:00.328Z,687.0000
2022-10-17T03:35:02.615Z,685.0000
2022-10-17T03:36:04.774Z,687.0000
2022-10-17T03:37:07.039Z,687.0000
2022-10-17T03:38:09.273Z,691.0000
2022-10-17T03:39:11.532Z,692.0000
2022-10-17T03:40:13.795Z,693.0000
2022-10-17T03:41:13.904Z,689.0000
2022-10-17T03:43:30.186Z,672.0000
2022-10-17T03:44:31.193Z,673.0000
2022-10-17T03:45:33.416Z,671.0000
2022-10-17T03:46:35.588Z,670.0000
2022-10-17T03:47:37.715Z,671.0000
2022-10-17T03:48:39.958Z,671.0000
2022-10-17T03:49:42.090Z,667.0000
2022-10-17T03:50:44.245Z,668.0000
2022-10-17T03:51:46.470Z,666.0000
2022-10-17T03:52:48.679Z,667.0000
2022-10-17T03:53:51.239Z,666.0000
2022-10-17T03:54:53.061Z,666.0000
2022-10-17T03:55:55.280Z,665.0000
2022-10-17T03:57:59.749Z,665.0000
2022-10-17T03:58:59.866Z,663.0000
2022-10-17T04:00:02.006Z,662.0000
2022-10-17T04:01:04.265Z,663.0000
2022-10-17T04:02:06.391Z,660.0000
2022-10-17T04:03:08.593Z,662.0000
2022-10-17T04:04:10.831Z,662.0000
2022-10-17T04:05:12.965Z,663.0000
2022-10-17T04:06:15.129Z,663.0000
2022-10-17T04:07:17.349Z,666.0000
2022-10-17T04:08:19.497Z,668.0000
2022-10-17T04:09:21.709Z,666.0000
2022-10-17T04:10:23.865Z,667.0000
2022-10-17T04:11:26.054Z,668.0000
2022-10-17T04:12:28.636Z,669.0000
2022-10-17T04:13:30.500Z,669.0000
2022-10-17T04:14:32.757Z,671.0000
2022-10-17T04:15:34.966Z,672.0000
2022-10-17T04:16:37.178Z,670.0000
2022-10-17T04:17:38.232Z,669.0000
2022-10-17T04:18:39.499Z,667.0000
2022-10-17T04:19:41.776Z,667.0000
2022-10-17T04:20:43.935Z,667.0000
2022-10-17T04:21:46.158Z,664.0000
2022-10-17T04:22:48.372Z,663.0000
2022-10-17T04:23:50.614Z,659.0000
2022-10-17T04:24:52.851Z,658.0000
2022-10-17T04:25:55.104Z,659.0000
2022-10-17T04:26:57.356Z,660.0000
2022-10-17T04:27:59.598Z,661.0000
2022-10-17T04:28:59.700Z,662.0000
2022-10-17T04:30:01.988Z,663.0000
2022-10-17T04:31:04.196Z,664.0000
2022-10-17T04:32:06.439Z,665.0000
2022-10-17T04:33:08.672Z,669.0000
2022-10-17T04:34:10.884Z,666.0000
2022-10-17T04:35:13.149Z,664.0000
2022-10-17T04:36:15.313Z,667.0000
2022-10-17T04:37:17.517Z,670.0000
2022-10-17T04:38:19.738Z,667.0000
2022-10-17T04:39:21.977Z,667.0000
2022-10-17T04:40:24.218Z,668.0000
2022-10-17T04:41:24.293Z,668.0000
2022-10-17T04:42:29.038Z,665.0000
2022-10-17T04:42:41.557Z,666.0000
2022-10-17T04:43:46.908Z,667.0000
2022-10-17T04:44:46.009Z,672.0000
2022-10-17T04:45:48.288Z,677.0000
2022-10-17T04:46:50.468Z,679.0000
2022-10-17T04:47:52.695Z,681.0000
2022-10-17T04:48:54.923Z,685.0000
2022-10-17T04:49:57.165Z,688.0000
2022-10-17T04:50:57.306Z,689.0000
2022-10-17T04:51:59.503Z,692.0000
2022-10-17T04:53:01.727Z,703.0000
2022-10-17T04:54:03.928Z,701.0000
2022-10-17T04:55:06.113Z,706.0000
2022-10-17T04:56:08.349Z,705.0000
2022-10-17T04:57:10.497Z,709.0000
2022-10-17T04:58:12.699Z,710.0000
2022-10-17T04:59:14.909Z,715.0000
2022-10-17T05:00:17.093Z,717.0000
2022-10-17T05:01:19.328Z,723.0000
2022-10-17T05:02:23.445Z,731.0000
2022-10-17T05:03:23.541Z,733.0000
2022-10-17T05:04:25.763Z,735.0000
2022-10-17T05:05:27.961Z,739.0000
2022-10-17T05:06:30.212Z,741.0000
2022-10-17T05:07:30.243Z,739.0000
2022-10-17T05:08:32.446Z,743.0000
2022-10-17T05:09:34.628Z,742.0000
2022-10-17T05:10:36.797Z,748.0000
2022-10-17T05:11:39.015Z,750.0000
2022-10-17T05:12:41.115Z,752.0000
2022-10-17T05:13:43.276Z,748.0000
2022-10-17T05:14:45.490Z,751.0000
2022-10-17T05:15:47.634Z,750.0000
2022-10-17T05:16:49.852Z,753.0000
2022-10-17T05:17:52.005Z,751.0000
2022-10-17T05:18:54.194Z,755.0000
2022-10-17T05:19:56.378Z,756.0000
2022-10-17T05:20:58.563Z,759.0000
2022-10-17T05:22:00.785Z,762.0000
2022-10-17T05:23:02.910Z,766.0000
2022-10-17T05:24:05.115Z,767.0000
2022-10-17T05:25:07.306Z,765.0000
2022-10-17T05:26:08.365Z,766.0000
2022-10-17T05:26:22.357Z,765.0000
2022-10-17T05:27:24.565Z,766.0000
2022-10-17T05:28:26.784Z,766.0000
2022-10-17T05:29:28.929Z,765.0000
2022-10-17T05:30:35.097Z,766.0000
2022-10-17T05:31:33.361Z,769.0000
2022-10-17T05:32:35.591Z,770.0000
2022-10-17T05:33:37.761Z,766.0000
2022-10-17T05:34:39.994Z,765.0000
2022-10-17T05:35:42.250Z,765.0000
2022-10-17T05:36:44.490Z,763.0000
2022-10-17T05:37:44.650Z,763.0000
2022-10-17T05:38:46.836Z,764.0000
2022-10-17T05:39:51.394Z,764.0000
2022-10-17T05:40:51.356Z,765.0000
2022-10-17T05:41:53.599Z,767.0000
2022-10-17T05:42:55.830Z,763.0000
2022-10-17T05:43:59.468Z,762.0000
2022-10-17T05:45:00.225Z,761.0000
2022-10-17T05:46:02.491Z,763.0000
2022-10-17T05:47:04.744Z,766.0000
2022-10-17T05:48:04.904Z,765.0000
2022-10-17T05:49:15.040Z,766.0000
2022-10-17T05:50:09.406Z,765.0000
2022-10-17T05:51:11.644Z,762.0000
2022-10-17T05:52:13.905Z,760.0000
2022-10-17T05:53:16.238Z,759.0000
2022-10-17T05:54:18.443Z,759.0000
2022-10-17T05:55:20.710Z,762.0000
2022-10-17T05:56:22.974Z,760.0000
2022-10-17T05:57:23.118Z,766.0000
2022-10-17T05:58:45.518Z,767.0000
2022-10-17T05:59:27.661Z,767.0000
2022-10-17T06:00:29.990Z,768.0000
2022-10-17T06:01:32.258Z,768.0000
2022-10-17T06:02:34.488Z,771.0000
2022-10-17T06:03:36.689Z,770.0000
2022-10-17T06:04:38.931Z,771.0000
2022-10-17T06:05:39.049Z,777.0000
2022-10-17T06:06:41.327Z,778.0000
2022-10-17T06:07:43.598Z,777.0000
2022-10-17T06:08:45.935Z,774.0000
2022-10-17T06:09:48.120Z,770.0000
2022-10-17T06:10:50.394Z,768.0000
2022-10-17T06:11:52.661Z,771.0000
2022-10-17T06:12:54.939Z,768.0000
2022-10-17T06:13:55.044Z,765.0000
2022-10-17T06:14:57.304Z,763.0000
2022-10-17T06:15:59.561Z,763.0000
2022-10-17T06:17:01.865Z,764.0000
2022-10-17T06:18:04.142Z,762.0000
2022-10-17T06:19:06.468Z,766.0000
2022-10-17T06:20:08.731Z,766.0000
2022-10-17T06:21:11.019Z,765.0000
2022-10-17T06:22:11.151Z,765.0000
2022-10-17T06:23:13.385Z,764.0000
2022-10-17T06:24:15.709Z,764.0000
2022-10-17T06:25:17.923Z,765.0000
2022-10-17T06:26:20.121Z,767.0000
2022-10-17T06:27:22.398Z,768.0000
2022-10-17T06:28:24.697Z,767.0000
2022-10-17T06:29:26.974Z,765.0000
2022-10-17T06:30:29.203Z,763.0000
2022-10-17T06:31:31.474Z,763.0000
2022-10-17T06:32:33.751Z,760.0000
2022-10-17T06:33:35.981Z,757.0000
2022-10-17T06:34:38.275Z,757.0000
2022-10-17T06:35:40.457Z,754.0000
2022-10-17T06:36:42.759Z,756.0000
2022-10-17T06:37:45.013Z,754.0000
2022-10-17T06:38:47.228Z,752.0000
2022-10-17T06:39:47.385Z,751.0000
2022-10-17T06:40:49.622Z,753.0000
2022-10-17T06:41:51.869Z,748.0000
2022-10-17T06:42:54.093Z,749.0000
2022-10-17T06:43:56.313Z,747.0000
2022-10-17T06:44:58.599Z,750.0000
2022-10-17T06:46:00.856Z,750.0000
2022-10-17T06:47:03.131Z,750.0000
2022-10-17T06:48:05.338Z,748.0000
2022-10-17T06:49:07.553Z,746.0000
2022-10-17T06:50:07.694Z,747.0000
2022-10-17T06:51:09.889Z,744.0000
2022-10-17T06:52:12.102Z,744.0000
2022-10-17T06:53:14.338Z,748.0000
2022-10-17T06:54:16.583Z,631.0000
2022-10-17T06:55:22.586Z,540.0000
2022-10-17T06:56:21.231Z,527.0000
2022-10-17T06:57:23.567Z,525.0000
2022-10-17T06:58:23.779Z,513.0000
2022-10-17T06:59:26.160Z,536.0000
2022-10-17T07:00:28.565Z,529.0000
2022-10-17T07:01:30.942Z,519.0000
2022-10-17T07:02:31.600Z,519.0000
2022-10-17T07:03:33.577Z,523.0000
2022-10-17T07:04:35.964Z,523.0000
2022-10-17T07:05:38.419Z,522.0000
2022-10-17T07:06:38.616Z,525.0000
2022-10-17T07:07:43.161Z,524.0000
2022-10-17T07:08:43.439Z,528.0000
2022-10-17T07:09:43.678Z,528.0000
2022-10-17T07:10:46.125Z,528.0000
2022-10-17T07:11:48.459Z,528.0000
2022-10-17T07:12:50.856Z,526.0000
2022-10-17T07:13:53.264Z,515.0000
2022-10-17T07:14:55.669Z,511.0000
2022-10-17T07:17:00.390Z,511.0000
2022-10-17T07:18:00.569Z,515.0000
2022-10-17T07:19:02.862Z,517.0000
2022-10-17T07:20:05.129Z,520.0000
2022-10-17T07:21:07.431Z,525.0000
2022-10-17T07:22:09.675Z,536.0000
2022-10-17T07:23:11.942Z,548.0000
2022-10-17T07:24:14.215Z,562.0000
2022-10-17T07:25:16.480Z,568.0000
2022-10-17T07:26:16.643Z,575.0000
2022-10-17T07:27:18.844Z,578.0000
2022-10-17T07:28:21.155Z,580.0000
2022-10-17T07:29:23.314Z,580.0000
2022-10-17T07:30:25.564Z,582.0000
2022-10-17T07:31:27.862Z,583.0000
2022-10-17T07:32:30.059Z,584.0000
2022-10-17T07:33:32.307Z,585.0000
2022-10-17T07:34:34.543Z,584.0000
2022-10-17T07:35:36.743Z,589.0000
2022-10-17T07:36:39.013Z,588.0000
2022-10-17T07:37:39.100Z,587.0000
2022-10-17T07:38:41.376Z,586.0000
2022-10-17T07:39:43.588Z,588.0000
2022-10-17T07:40:45.821Z,588.0000
2022-10-17T07:41:48.108Z,586.0000
2022-10-17T07:42:50.285Z,583.0000
2022-10-17T07:43:52.536Z,585.0000
2022-10-17T07:44:54.819Z,586.0000
2022-10-17T07:45:57.068Z,583.0000
2022-10-17T07:46:57.246Z,583.0000
2022-10-17T07:47:59.440Z,587.0000
2022-10-17T07:49:01.711Z,586.0000
2022-10-17T07:50:03.970Z,588.0000
2022-10-17T07:51:06.247Z,591.0000
2022-10-17T07:52:08.552Z,593.0000
2022-10-17T07:53:10.807Z,594.0000
2022-10-17T07:54:13.082Z,594.0000
2022-10-17T07:55:13.205Z,585.0000
2022-10-17T07:56:15.451Z,575.0000
2022-10-17T07:57:17.788Z,575.0000
2022-10-17T07:58:20.014Z,572.0000
2022-10-17T07:59:22.289Z,553.0000
2022-10-17T08:00:24.551Z,529.0000
2022-10-17T08:01:26.851Z,524.0000
2022-10-17T08:02:29.524Z,519.0000
2022-10-17T08:03:29.303Z,521.0000
2022-10-17T08:04:31.631Z,496.0000
2022-10-17T08:05:33.964Z,512.0000
2022-10-17T08:06:36.275Z,503.0000
2022-10-17T08:07:38.648Z,502.0000
2022-10-17T08:08:40.936Z,513.0000
2022-10-17T08:09:41.120Z,503.0000
2022-10-17T08:10:43.489Z,505.0000
2022-10-17T08:11:45.888Z,503.0000
2022-10-17T08:12:46.183Z,507.0000
2022-10-17T08:13:48.539Z,505.0000
2022-10-17T08:14:50.922Z,508.0000
2022-10-17T08:15:53.318Z,508.0000
2022-10-17T08:16:53.560Z,509.0000
2022-10-17T08:17:55.953Z,512.0000
2022-10-17T08:18:58.289Z,508.0000
2022-10-17T08:20:00.629Z,505.0000
2022-10-17T08:21:02.948Z,499.0000
2022-10-17T08:22:03.170Z,506.0000
2022-10-17T08:23:05.486Z,504.0000
2022-10-17T08:24:07.789Z,507.0000
2022-10-17T08:25:10.265Z,507.0000
2022-10-17T08:26:12.485Z,505.0000
2022-10-17T08:27:14.868Z,511.0000
2022-10-17T08:28:15.157Z,518.0000
2022-10-17T08:29:17.483Z,519.0000
2022-10-17T08:30:19.880Z,523.0000
2022-10-17T08:31:22.261Z,516.0000
2022-10-17T08:32:22.493Z,518.0000
2022-10-17T08:33:24.922Z,510.0000
2022-10-17T08:34:27.246Z,511.0000
2022-10-17T08:35:29.534Z,510.0000
2022-10-17T08:36:31.760Z,520.0000
2022-10-17T08:37:32.359Z,519.0000
2022-10-17T08:38:35.671Z,541.0000
2022-10-17T08:39:36.453Z,522.0000
2022-10-17T08:40:38.752Z,520.0000
2022-10-17T08:41:40.989Z,520.0000
2022-10-17T08:42:43.245Z,522.0000
2022-10-17T08:43:45.562Z,525.0000
2022-10-17T08:44:45.617Z,533.0000
2022-10-17T08:45:47.915Z,531.0000
2022-10-17T08:46:50.216Z,533.0000
2022-10-17T08:47:52.489Z,531.0000
2022-10-17T08:48:54.752Z,531.0000
2022-10-17T08:49:57.005Z,524.0000
2022-10-17T08:50:59.327Z,529.0000
2022-10-17T08:51:59.499Z,527.0000
2022-10-17T08:53:01.829Z,531.0000
2022-10-17T08:54:04.191Z,529.0000
2022-10-17T08:55:06.493Z,526.0000
2022-10-17T08:56:11.944Z,526.0000
2022-10-17T08:57:11.031Z,527.0000
2022-10-17T08:58:11.240Z,522.0000
2022-10-17T08:59:13.640Z,526.0000
2022-10-17T09:00:15.949Z,521.0000
2022-10-17T09:01:18.328Z,523.0000
2022-10-17T09:02:20.683Z,523.0000
2022-10-17T09:03:20.919Z,528.0000
2022-10-17T09:04:23.241Z,517.0000
2022-10-17T09:05:26.632Z,523.0000
2022-10-17T09:06:27.773Z,525.0000
2022-10-17T09:07:30.546Z,525.0000
2022-10-17T09:08:32.441Z,521.0000
2022-10-17T09:09:32.661Z,527.0000
2022-10-17T09:10:34.991Z,529.0000
2022-10-17T09:11:37.336Z,524.0000
2022-10-17T09:12:39.648Z,525.0000
2022-10-17T09:13:41.978Z,526.0000
2022-10-17T09:14:42.169Z,524.0000
2022-10-17T09:15:42.296Z,525.0000
2022-10-17T09:16:44.638Z,526.0000
2022-10-17T09:17:46.996Z,521.0000
2022-10-17T09:18:49.338Z,522.0000
2022-10-17T09:19:49.567Z,523.0000
2022-10-17T09:20:51.828Z,519.0000
2022-10-17T09:21:54.138Z,518.0000
2022-10-17T09:24:08.845Z,516.0000
2022-10-17T09:25:01.127Z,513.0000
2022-10-17T09:26:03.401Z,513.0000
2022-10-17T09:27:05.735Z,518.0000
2022-10-17T09:28:08.077Z,518.0000
2022-10-17T09:29:08.342Z,514.0000
2022-10-17T09:30:21.377Z,512.0000
2022-10-17T09:31:12.942Z,512.0000
2022-10-17T09:32:15.231Z,504.0000
2022-10-17T09:33:28.533Z,505.0000
2022-10-17T09:34:17.731Z,511.0000
2022-10-17T09:35:20.087Z,506.0000
2022-10-17T09:36:22.382Z,505.0000
2022-10-17T09:37:24.749Z,505.0000
2022-10-17T09:38:27.049Z,506.0000
2022-10-17T09:39:29.375Z,509.0000
2022-10-17T09:40:29.580Z,508.0000
2022-10-17T09:41:44.787Z,507.0000
2022-10-17T09:42:34.140Z,498.0000
2022-10-17T09:43:36.482Z,496.0000
2022-10-17T09:44:38.818Z,495.0000
2022-10-17T09:45:39.095Z,495.0000
2022-10-17T09:46:41.359Z,494.0000
2022-10-17T09:47:43.694Z,490.0000
2022-10-17T09:48:47.764Z,484.0000
2022-10-17T09:49:48.284Z,482.0000
2022-10-17T09:50:57.947Z,478.0000
2022-10-17T09:51:50.760Z,473.0000
2022-10-17T09:52:53.097Z,472.0000
2022-10-17T09:53:55.441Z,474.0000
2022-10-17T09:55:05.228Z,479.0000
2022-10-17T09:56:07.547Z,484.0000
2022-10-17T09:57:09.839Z,485.0000
2022-10-17T09:58:12.153Z,479.0000
2022-10-17T09:59:14.456Z,474.0000
2022-10-17T10:00:16.787Z,477.0000
2022-10-17T10:01:22.733Z,484.0000
2022-10-17T10:02:21.189Z,487.0000
2022-10-17T10:03:23.405Z,487.0000
2022-10-17T10:04:27.636Z,487.0000
2022-10-17T10:05:27.940Z,487.0000
2022-10-17T10:06:30.234Z,487.0000
2022-10-17T10:07:32.485Z,489.0000
2022-10-17T10:08:32.607Z,487.0000
2022-10-17T10:09:36.880Z,486.0000
2022-10-17T10:10:37.093Z,492.0000
2022-10-17T10:11:39.357Z,491.0000
2022-10-17T10:12:41.592Z,487.0000
2022-10-17T10:13:43.821Z,485.0000
2022-10-17T10:14:47.293Z,482.0000
2022-10-17T10:15:48.325Z,471.0000
2022-10-17T10:16:50.659Z,474.0000
2022-10-17T10:17:52.872Z,470.0000
2022-10-17T10:18:55.148Z,466.0000
2022-10-17T10:19:57.397Z,466.0000
2022-10-17T10:20:57.536Z,466.0000
2022-10-17T10:21:59.825Z,463.0000
2022-10-17T10:23:02.012Z,462.0000
2022-10-17T10:24:04.263Z,463.0000
2022-10-17T10:25:06.492Z,461.0000
2022-10-17T10:26:10.037Z,459.0000
2022-10-17T10:27:11.028Z,458.0000
2022-10-17T10:28:13.237Z,457.0000
2022-10-17T10:29:13.350Z,457.0000
2022-10-17T10:30:15.607Z,455.0000
2022-10-17T10:31:17.869Z,453.0000
2022-10-17T10:32:20.174Z,458.0000
2022-10-17T10:33:22.397Z,457.0000
2022-10-17T10:34:24.668Z,455.0000
2022-10-17T10:35:26.944Z,451.0000
2022-10-17T10:36:29.287Z,458.0000
2022-10-17T10:37:29.740Z,457.0000
2022-10-17T10:38:31.557Z,455.0000
2022-10-17T10:39:33.771Z,456.0000
2022-10-17T10:40:36.019Z,455.0000
2022-10-17T10:41:38.229Z,453.0000
2022-10-17T10:42:40.463Z,454.0000
2022-10-17T10:43:42.678Z,455.0000
2022-10-17T10:44:44.919Z,458.0000
2022-10-17T10:45:48.718Z,457.0000
2022-10-17T10:46:49.437Z,457.0000
2022-10-17T10:47:51.786Z,460.0000
2022-10-17T10:48:54.045Z,459.0000
2022-10-17T10:49:54.164Z,458.0000
2022-10-17T10:50:56.390Z,456.0000
2022-10-17T10:51:58.616Z,454.0000
2022-10-17T10:53:00.853Z,454.0000
2022-10-17T10:54:03.046Z,452.0000
2022-10-17T10:55:05.272Z,453.0000
2022-10-17T10:56:07.507Z,449.0000
2022-10-17T10:57:09.746Z,449.0000
2022-10-17T10:58:12.013Z,450.0000
2022-10-17T10:59:12.006Z,446.0000
2022-10-17T11:00:14.210Z,443.0000
2022-10-17T11:01:16.442Z,444.0000
2022-10-17T11:02:18.602Z,444.0000
2022-10-17T11:03:20.877Z,447.0000
2022-10-17T11:04:20.918Z,450.0000
2022-10-17T11:05:23.169Z,449.0000
2022-10-17T11:06:25.410Z,452.0000
2022-10-17T11:07:28.018Z,451.0000
2022-10-17T11:08:29.911Z,449.0000
2022-10-17T11:09:33.786Z,447.0000
2022-10-17T11:10:34.333Z,451.0000
2022-10-17T11:11:36.592Z,450.0000
2022-10-17T11:12:38.937Z,450.0000
2022-10-17T11:13:41.141Z,451.0000
2022-10-17T11:14:43.353Z,454.0000
2022-10-17T11:15:45.576Z,451.0000
2022-10-17T11:16:47.779Z,450.0000
2022-10-17T11:17:49.978Z,453.0000
2022-10-17T11:18:52.261Z,454.0000
2022-10-17T11:19:54.416Z,457.0000
2022-10-17T11:20:56.615Z,459.0000
2022-10-17T11:21:58.793Z,458.0000
2022-10-17T11:23:00.952Z,457.0000
2022-10-17T11:24:06.842Z,460.0000
2022-10-17T11:25:05.394Z,460.0000
2022-10-17T11:26:07.615Z,458.0000
2022-10-17T11:27:07.685Z,456.0000
2022-10-17T11:28:09.922Z,456.0000
2022-10-17T11:29:12.187Z,457.0000
2022-10-17T11:30:14.338Z,460.0000
2022-10-17T11:31:16.520Z,458.0000
2022-10-17T11:32:16.598Z,459.0000
2022-10-17T11:33:18.814Z,460.0000
2022-10-17T11:34:21.087Z,463.0000
2022-10-17T11:35:23.232Z,463.0000
2022-10-17T11:36:25.471Z,463.0000
2022-10-17T11:37:25.541Z,459.0000
2022-10-17T11:38:27.758Z,456.0000
2022-10-17T11:39:30.009Z,454.0000
2022-10-17T11:40:32.221Z,455.0000
2022-10-17T11:41:34.446Z,453.0000
2022-10-17T11:42:36.676Z,451.0000
2022-10-17T11:43:38.911Z,452.0000
2022-10-17T11:44:41.124Z,452.0000
2022-10-17T11:45:43.232Z,453.0000
2022-10-17T11:46:45.468Z,452.0000
2022-10-17T11:47:47.703Z,451.0000
2022-10-17T11:48:49.897Z,451.0000
2022-10-17T11:49:52.307Z,450.0000
2022-10-17T11:52:01.467Z,450.0000
2022-10-17T11:52:59.512Z,453.0000
2022-10-17T11:54:01.254Z,450.0000
2022-10-17T11:55:01.431Z,454.0000
2022-10-17T11:56:03.690Z,453.0000
2022-10-17T11:57:05.963Z,454.0000
2022-10-17T11:58:08.246Z,456.0000
2022-10-17T11:59:10.531Z,454.0000
2022-10-17T12:00:12.865Z,456.0000
2022-10-17T12:01:15.098Z,456.0000
2022-10-17T12:02:15.231Z,455.0000
2022-10-17T12:03:17.499Z,457.0000
2022-10-17T12:04:19.805Z,459.0000
2022-10-17T12:05:22.105Z,460.0000
2022-10-17T12:06:25.842Z,457.0000
2022-10-17T12:07:24.483Z,459.0000
2022-10-17T12:08:29.169Z,456.0000
2022-10-17T12:09:28.924Z,454.0000
2022-10-17T12:10:31.229Z,456.0000
2022-10-17T12:11:33.443Z,453.0000
2022-10-17T12:12:35.645Z,453.0000
2022-10-17T12:13:37.855Z,450.0000
2022-10-17T12:14:40.119Z,453.0000